sensor_id;sensor_type;location;lat;lon;timestamp;P1;durP1;ratioP1;P2;durP2;ratioP2
21326;SDS011;10822;51.532;6.770;2022-07-29T00:01:46;3.47;;;1.20;;
21326;SDS011;10822;51.532;6.770;2022-07-29T00:04:12;7.90;;;3.60;;
21326;SDS011;10822;51.532;6.770;2022-07-29T00:06:39;6.53;;;2.42;;
21326;SDS011;10822;51.532;6.770;2022-07-29T00:09:05;7.22;;;1.90;;
21326;SDS011;10822;51.532;6.770;2022-07-29T00:11:30;3.30;;;1.70;;
21326;SDS011;10822;51.532;6.770;2022-07-29T00:13:56;4.32;;;1.42;;
21326;SDS011;10822;51.532;6.770;2022-07-29T00:16:22;4.30;;;1.50;;
21326;SDS011;10822;51.532;6.770;2022-07-29T00:18:48;5.18;;;1.20;;
21326;SDS011;10822;51.532;6.770;2022-07-29T00:21:14;4.97;;;1.15;;
21326;SDS011;10822;51.532;6.770;2022-07-29T00:23:40;5.43;;;1.30;;
21326;SDS011;10822;51.532;6.770;2022-07-29T00:26:06;6.22;;;1.13;;
21326;SDS011;10822;51.532;6.770;2022-07-29T00:28:33;4.28;;;1.15;;
21326;SDS011;10822;51.532;6.770;2022-07-29T00:30:59;3.60;;;1.25;;
21326;SDS011;10822;51.532;6.770;2022-07-29T00:33:25;7.57;;;1.33;;
21326;SDS011;10822;51.532;6.770;2022-07-29T00:35:51;4.57;;;1.10;;
21326;SDS011;10822;51.532;6.770;2022-07-29T00:38:18;4.85;;;1.45;;
21326;SDS011;10822;51.532;6.770;2022-07-29T00:40:45;6.53;;;2.60;;
21326;SDS011;10822;51.532;6.770;2022-07-29T00:43:11;5.00;;;1.63;;
21326;SDS011;10822;51.532;6.770;2022-07-29T00:45:38;6.30;;;2.00;;
21326;SDS011;10822;51.532;6.770;2022-07-29T00:48:04;5.88;;;1.80;;
21326;SDS011;10822;51.532;6.770;2022-07-29T00:50:31;4.05;;;1.30;;
21326;SDS011;10822;51.532;6.770;2022-07-29T00:52:57;3.88;;;1.10;;
21326;SDS011;10822;51.532;6.770;2022-07-29T00:55:24;3.70;;;1.15;;
21326;SDS011;10822;51.532;6.770;2022-07-29T00:57:50;2.88;;;1.10;;
21326;SDS011;10822;51.532;6.770;2022-07-29T01:00:20;7.72;;;1.30;;
21326;SDS011;10822;51.532;6.770;2022-07-29T01:02:46;5.95;;;1.15;;
21326;SDS011;10822;51.532;6.770;2022-07-29T01:05:19;3.67;;;1.05;;
21326;SDS011;10822;51.532;6.770;2022-07-29T01:07:47;7.15;;;1.30;;
21326;SDS011;10822;51.532;6.770;2022-07-29T01:10:14;4.18;;;1.20;;
21326;SDS011;10822;51.532;6.770;2022-07-29T01:12:40;4.80;;;1.30;;
21326;SDS011;10822;51.532;6.770;2022-07-29T01:15:07;3.58;;;1.20;;
21326;SDS011;10822;51.532;6.770;2022-07-29T01:17:40;6.47;;;1.73;;
21326;SDS011;10822;51.532;6.770;2022-07-29T01:20:10;5.05;;;1.30;;
21326;SDS011;10822;51.532;6.770;2022-07-29T01:30:14;5.85;;;1.35;;
21326;SDS011;10822;51.532;6.770;2022-07-29T01:32:40;4.00;;;1.30;;
21326;SDS011;10822;51.532;6.770;2022-07-29T01:35:17;4.10;;;1.30;;
21326;SDS011;10822;51.532;6.770;2022-07-29T01:40:20;4.20;;;1.23;;
21326;SDS011;10822;51.532;6.770;2022-07-29T01:42:51;3.78;;;1.13;;
21326;SDS011;10822;51.532;6.770;2022-07-29T01:45:37;4.47;;;1.30;;
21326;SDS011;10822;51.532;6.770;2022-07-29T01:48:12;3.58;;;1.10;;
21326;SDS011;10822;51.532;6.770;2022-07-29T01:51:23;5.13;;;1.30;;
21326;SDS011;10822;51.532;6.770;2022-07-29T01:53:32;4.82;;;1.30;;
21326;SDS011;10822;51.532;6.770;2022-07-29T01:56:00;1.88;;;1.02;;
21326;SDS011;10822;51.532;6.770;2022-07-29T01:58:27;4.95;;;1.63;;
21326;SDS011;10822;51.532;6.770;2022-07-29T02:00:54;4.32;;;1.40;;
21326;SDS011;10822;51.532;6.770;2022-07-29T02:03:21;4.70;;;1.70;;
21326;SDS011;10822;51.532;6.770;2022-07-29T02:05:48;7.78;;;2.20;;
21326;SDS011;10822;51.532;6.770;2022-07-29T02:08:15;4.03;;;2.20;;
21326;SDS011;10822;51.532;6.770;2022-07-29T02:10:42;5.63;;;1.58;;
21326;SDS011;10822;51.532;6.770;2022-07-29T02:13:09;4.35;;;1.80;;
21326;SDS011;10822;51.532;6.770;2022-07-29T02:15:36;4.97;;;1.45;;
21326;SDS011;10822;51.532;6.770;2022-07-29T02:18:07;4.28;;;1.45;;
21326;SDS011;10822;51.532;6.770;2022-07-29T02:20:34;4.10;;;1.40;;
21326;SDS011;10822;51.532;6.770;2022-07-29T02:23:00;6.20;;;1.40;;
21326;SDS011;10822;51.532;6.770;2022-07-29T02:25:27;2.90;;;1.20;;
21326;SDS011;10822;51.532;6.770;2022-07-29T02:27:53;5.68;;;1.40;;
21326;SDS011;10822;51.532;6.770;2022-07-29T02:30:19;4.63;;;1.45;;
21326;SDS011;10822;51.532;6.770;2022-07-29T02:32:47;8.40;;;2.72;;
21326;SDS011;10822;51.532;6.770;2022-07-29T02:35:14;6.65;;;2.25;;
21326;SDS011;10822;51.532;6.770;2022-07-29T02:37:41;8.52;;;2.00;;
21326;SDS011;10822;51.532;6.770;2022-07-29T02:40:08;6.68;;;1.30;;
21326;SDS011;10822;51.532;6.770;2022-07-29T02:42:35;2.42;;;1.10;;
21326;SDS011;10822;51.532;6.770;2022-07-29T02:45:02;4.38;;;1.27;;
21326;SDS011;10822;51.532;6.770;2022-07-29T02:47:35;3.70;;;1.42;;
21326;SDS011;10822;51.532;6.770;2022-07-29T02:50:10;8.18;;;1.75;;
21326;SDS011;10822;51.532;6.770;2022-07-29T03:00:23;5.45;;;1.75;;
21326;SDS011;10822;51.532;6.770;2022-07-29T03:02:52;4.97;;;1.48;;
21326;SDS011;10822;51.532;6.770;2022-07-29T03:05:20;3.25;;;1.50;;
21326;SDS011;10822;51.532;6.770;2022-07-29T03:07:48;3.42;;;1.20;;
21326;SDS011;10822;51.532;6.770;2022-07-29T03:10:15;6.63;;;1.45;;
21326;SDS011;10822;51.532;6.770;2022-07-29T03:12:41;4.68;;;1.10;;
21326;SDS011;10822;51.532;6.770;2022-07-29T03:15:08;4.28;;;1.42;;
21326;SDS011;10822;51.532;6.770;2022-07-29T03:17:34;6.22;;;1.10;;
21326;SDS011;10822;51.532;6.770;2022-07-29T03:20:01;3.50;;;1.15;;
21326;SDS011;10822;51.532;6.770;2022-07-29T03:22:27;4.80;;;1.33;;
21326;SDS011;10822;51.532;6.770;2022-07-29T03:24:53;3.90;;;1.20;;
21326;SDS011;10822;51.532;6.770;2022-07-29T03:27:19;5.28;;;1.30;;
21326;SDS011;10822;51.532;6.770;2022-07-29T03:29:45;7.07;;;1.45;;
21326;SDS011;10822;51.532;6.770;2022-07-29T03:32:11;5.60;;;1.30;;
21326;SDS011;10822;51.532;6.770;2022-07-29T03:34:37;3.25;;;1.25;;
21326;SDS011;10822;51.532;6.770;2022-07-29T03:37:04;4.20;;;1.30;;
21326;SDS011;10822;51.532;6.770;2022-07-29T03:39:31;4.90;;;1.50;;
21326;SDS011;10822;51.532;6.770;2022-07-29T03:41:59;6.47;;;1.60;;
21326;SDS011;10822;51.532;6.770;2022-07-29T03:44:26;4.30;;;1.48;;
21326;SDS011;10822;51.532;6.770;2022-07-29T03:46:52;4.25;;;1.40;;
21326;SDS011;10822;51.532;6.770;2022-07-29T03:49:19;7.22;;;1.80;;
21326;SDS011;10822;51.532;6.770;2022-07-29T03:51:46;4.55;;;1.20;;
21326;SDS011;10822;51.532;6.770;2022-07-29T03:54:12;4.53;;;1.50;;
21326;SDS011;10822;51.532;6.770;2022-07-29T03:56:39;5.03;;;1.48;;
21326;SDS011;10822;51.532;6.770;2022-07-29T03:59:06;5.07;;;1.52;;
21326;SDS011;10822;51.532;6.770;2022-07-29T04:01:33;5.07;;;1.60;;
21326;SDS011;10822;51.532;6.770;2022-07-29T04:03:59;4.95;;;1.70;;
21326;SDS011;10822;51.532;6.770;2022-07-29T04:06:26;5.22;;;1.63;;
21326;SDS011;10822;51.532;6.770;2022-07-29T04:08:52;6.20;;;1.35;;
21326;SDS011;10822;51.532;6.770;2022-07-29T04:11:18;4.30;;;1.33;;
21326;SDS011;10822;51.532;6.770;2022-07-29T04:13:44;6.28;;;1.77;;
21326;SDS011;10822;51.532;6.770;2022-07-29T04:16:10;5.05;;;1.30;;
21326;SDS011;10822;51.532;6.770;2022-07-29T04:18:36;4.32;;;1.40;;
21326;SDS011;10822;51.532;6.770;2022-07-29T04:21:02;4.53;;;1.48;;
21326;SDS011;10822;51.532;6.770;2022-07-29T04:23:29;5.43;;;1.85;;
21326;SDS011;10822;51.532;6.770;2022-07-29T04:25:58;6.80;;;2.80;;
21326;SDS011;10822;51.532;6.770;2022-07-29T04:28:25;4.57;;;2.20;;
21326;SDS011;10822;51.532;6.770;2022-07-29T04:30:51;5.32;;;2.10;;
21326;SDS011;10822;51.532;6.770;2022-07-29T04:33:17;20.08;;;2.70;;
21326;SDS011;10822;51.532;6.770;2022-07-29T04:35:43;8.45;;;2.50;;
21326;SDS011;10822;51.532;6.770;2022-07-29T04:38:09;11.93;;;2.75;;
21326;SDS011;10822;51.532;6.770;2022-07-29T04:40:35;8.27;;;2.55;;
21326;SDS011;10822;51.532;6.770;2022-07-29T04:43:01;9.20;;;2.75;;
21326;SDS011;10822;51.532;6.770;2022-07-29T04:45:27;10.68;;;2.60;;
21326;SDS011;10822;51.532;6.770;2022-07-29T04:47:54;7.40;;;2.30;;
21326;SDS011;10822;51.532;6.770;2022-07-29T04:50:20;9.85;;;4.50;;
21326;SDS011;10822;51.532;6.770;2022-07-29T04:52:47;6.20;;;3.60;;
21326;SDS011;10822;51.532;6.770;2022-07-29T04:55:12;8.18;;;2.65;;
21326;SDS011;10822;51.532;6.770;2022-07-29T04:57:38;6.20;;;2.53;;
21326;SDS011;10822;51.532;6.770;2022-07-29T05:00:05;6.07;;;2.88;;
21326;SDS011;10822;51.532;6.770;2022-07-29T05:02:31;5.40;;;2.40;;
21326;SDS011;10822;51.532;6.770;2022-07-29T05:04:57;6.82;;;2.75;;
21326;SDS011;10822;51.532;6.770;2022-07-29T05:07:23;4.10;;;2.28;;
21326;SDS011;10822;51.532;6.770;2022-07-29T05:09:49;7.60;;;2.50;;
21326;SDS011;10822;51.532;6.770;2022-07-29T05:12:15;5.68;;;2.22;;
21326;SDS011;10822;51.532;6.770;2022-07-29T05:14:41;5.93;;;2.55;;
21326;SDS011;10822;51.532;6.770;2022-07-29T05:17:07;7.85;;;2.47;;
21326;SDS011;10822;51.532;6.770;2022-07-29T05:19:33;7.53;;;2.88;;
21326;SDS011;10822;51.532;6.770;2022-07-29T05:21:59;5.70;;;2.53;;
21326;SDS011;10822;51.532;6.770;2022-07-29T05:24:25;6.40;;;2.60;;
21326;SDS011;10822;51.532;6.770;2022-07-29T05:26:51;5.68;;;2.50;;
21326;SDS011;10822;51.532;6.770;2022-07-29T05:29:17;4.45;;;2.38;;
21326;SDS011;10822;51.532;6.770;2022-07-29T05:31:43;6.30;;;2.85;;
21326;SDS011;10822;51.532;6.770;2022-07-29T05:34:09;4.80;;;2.63;;
21326;SDS011;10822;51.532;6.770;2022-07-29T05:36:35;6.85;;;2.50;;
21326;SDS011;10822;51.532;6.770;2022-07-29T05:39:01;5.65;;;2.50;;
21326;SDS011;10822;51.532;6.770;2022-07-29T05:41:27;7.15;;;2.38;;
21326;SDS011;10822;51.532;6.770;2022-07-29T05:43:53;8.73;;;2.70;;
21326;SDS011;10822;51.532;6.770;2022-07-29T05:46:19;5.28;;;2.15;;
21326;SDS011;10822;51.532;6.770;2022-07-29T05:48:45;14.95;;;2.67;;
21326;SDS011;10822;51.532;6.770;2022-07-29T05:51:11;5.22;;;2.10;;
21326;SDS011;10822;51.532;6.770;2022-07-29T05:53:37;5.85;;;2.28;;
21326;SDS011;10822;51.532;6.770;2022-07-29T05:56:03;5.30;;;2.15;;
21326;SDS011;10822;51.532;6.770;2022-07-29T05:58:30;7.03;;;2.60;;
21326;SDS011;10822;51.532;6.770;2022-07-29T06:00:56;4.10;;;2.53;;
21326;SDS011;10822;51.532;6.770;2022-07-29T06:03:25;5.50;;;2.40;;
21326;SDS011;10822;51.532;6.770;2022-07-29T06:05:51;7.60;;;2.35;;
21326;SDS011;10822;51.532;6.770;2022-07-29T06:08:17;5.10;;;2.35;;
21326;SDS011;10822;51.532;6.770;2022-07-29T06:10:43;5.60;;;2.35;;
21326;SDS011;10822;51.532;6.770;2022-07-29T06:13:10;7.53;;;2.65;;
21326;SDS011;10822;51.532;6.770;2022-07-29T06:15:36;5.40;;;2.67;;
21326;SDS011;10822;51.532;6.770;2022-07-29T06:18:02;4.95;;;2.60;;
21326;SDS011;10822;51.532;6.770;2022-07-29T06:20:32;4.85;;;2.92;;
21326;SDS011;10822;51.532;6.770;2022-07-29T06:22:58;6.13;;;2.80;;
21326;SDS011;10822;51.532;6.770;2022-07-29T06:25:24;4.90;;;2.70;;
21326;SDS011;10822;51.532;6.770;2022-07-29T06:27:51;5.55;;;2.60;;
21326;SDS011;10822;51.532;6.770;2022-07-29T06:30:17;4.95;;;2.60;;
21326;SDS011;10822;51.532;6.770;2022-07-29T06:32:43;5.65;;;2.70;;
21326;SDS011;10822;51.532;6.770;2022-07-29T06:35:09;4.65;;;2.58;;
21326;SDS011;10822;51.532;6.770;2022-07-29T06:37:35;6.05;;;3.08;;
21326;SDS011;10822;51.532;6.770;2022-07-29T06:40:01;6.32;;;2.70;;
21326;SDS011;10822;51.532;6.770;2022-07-29T06:42:45;5.88;;;2.92;;
21326;SDS011;10822;51.532;6.770;2022-07-29T06:45:12;4.53;;;2.70;;
21326;SDS011;10822;51.532;6.770;2022-07-29T06:47:38;5.05;;;3.08;;
21326;SDS011;10822;51.532;6.770;2022-07-29T06:50:04;5.47;;;2.80;;
21326;SDS011;10822;51.532;6.770;2022-07-29T06:52:30;6.13;;;3.00;;
21326;SDS011;10822;51.532;6.770;2022-07-29T06:54:56;5.15;;;2.70;;
21326;SDS011;10822;51.532;6.770;2022-07-29T06:57:23;6.32;;;3.00;;
21326;SDS011;10822;51.532;6.770;2022-07-29T06:59:49;6.68;;;2.80;;
21326;SDS011;10822;51.532;6.770;2022-07-29T07:02:15;10.40;;;2.63;;
21326;SDS011;10822;51.532;6.770;2022-07-29T07:04:41;5.60;;;2.63;;
21326;SDS011;10822;51.532;6.770;2022-07-29T07:07:07;5.35;;;2.60;;
21326;SDS011;10822;51.532;6.770;2022-07-29T07:09:33;7.70;;;2.88;;
21326;SDS011;10822;51.532;6.770;2022-07-29T07:11:59;7.75;;;2.95;;
21326;SDS011;10822;51.532;6.770;2022-07-29T07:14:25;7.63;;;2.80;;
21326;SDS011;10822;51.532;6.770;2022-07-29T07:16:52;6.82;;;2.80;;
21326;SDS011;10822;51.532;6.770;2022-07-29T07:19:18;8.90;;;3.22;;
21326;SDS011;10822;51.532;6.770;2022-07-29T07:21:44;8.90;;;3.30;;
21326;SDS011;10822;51.532;6.770;2022-07-29T07:24:10;9.00;;;3.08;;
21326;SDS011;10822;51.532;6.770;2022-07-29T07:26:36;9.15;;;3.20;;
21326;SDS011;10822;51.532;6.770;2022-07-29T07:29:02;5.20;;;2.85;;
21326;SDS011;10822;51.532;6.770;2022-07-29T07:31:28;8.55;;;3.20;;
21326;SDS011;10822;51.532;6.770;2022-07-29T07:33:54;4.63;;;3.22;;
21326;SDS011;10822;51.532;6.770;2022-07-29T07:36:21;7.53;;;3.20;;
21326;SDS011;10822;51.532;6.770;2022-07-29T07:38:47;10.38;;;3.15;;
21326;SDS011;10822;51.532;6.770;2022-07-29T07:41:13;9.30;;;2.92;;
21326;SDS011;10822;51.532;6.770;2022-07-29T07:43:39;8.38;;;3.08;;
21326;SDS011;10822;51.532;6.770;2022-07-29T07:46:05;4.47;;;3.00;;
21326;SDS011;10822;51.532;6.770;2022-07-29T07:48:31;6.63;;;3.15;;
21326;SDS011;10822;51.532;6.770;2022-07-29T07:50:59;6.05;;;3.40;;
21326;SDS011;10822;51.532;6.770;2022-07-29T07:53:25;4.72;;;3.17;;
21326;SDS011;10822;51.532;6.770;2022-07-29T07:55:51;6.68;;;3.25;;
21326;SDS011;10822;51.532;6.770;2022-07-29T07:58:17;6.68;;;3.08;;
21326;SDS011;10822;51.532;6.770;2022-07-29T08:00:43;7.32;;;3.67;;
21326;SDS011;10822;51.532;6.770;2022-07-29T08:03:09;8.18;;;3.67;;
21326;SDS011;10822;51.532;6.770;2022-07-29T08:05:37;8.02;;;3.50;;
21326;SDS011;10822;51.532;6.770;2022-07-29T08:08:04;7.70;;;3.38;;
21326;SDS011;10822;51.532;6.770;2022-07-29T08:10:30;5.65;;;3.13;;
21326;SDS011;10822;51.532;6.770;2022-07-29T08:13:14;6.43;;;3.40;;
21326;SDS011;10822;51.532;6.770;2022-07-29T08:15:40;7.72;;;3.83;;
21326;SDS011;10822;51.532;6.770;2022-07-29T08:18:08;6.32;;;3.70;;
21326;SDS011;10822;51.532;6.770;2022-07-29T08:20:35;6.57;;;3.40;;
21326;SDS011;10822;51.532;6.770;2022-07-29T08:23:03;9.38;;;3.80;;
21326;SDS011;10822;51.532;6.770;2022-07-29T08:25:31;5.40;;;3.80;;
21326;SDS011;10822;51.532;6.770;2022-07-29T08:27:57;8.38;;;4.35;;
21326;SDS011;10822;51.532;6.770;2022-07-29T08:30:23;6.68;;;4.07;;
21326;SDS011;10822;51.532;6.770;2022-07-29T08:32:49;6.93;;;3.70;;
21326;SDS011;10822;51.532;6.770;2022-07-29T08:35:17;9.63;;;4.85;;
21326;SDS011;10822;51.532;6.770;2022-07-29T08:37:44;8.05;;;4.25;;
21326;SDS011;10822;51.532;6.770;2022-07-29T08:40:10;10.15;;;3.97;;
21326;SDS011;10822;51.532;6.770;2022-07-29T08:42:36;7.93;;;4.57;;
21326;SDS011;10822;51.532;6.770;2022-07-29T08:45:02;7.57;;;4.60;;
21326;SDS011;10822;51.532;6.770;2022-07-29T08:47:28;10.93;;;4.20;;
21326;SDS011;10822;51.532;6.770;2022-07-29T08:49:55;8.80;;;5.05;;
21326;SDS011;10822;51.532;6.770;2022-07-29T08:52:21;7.97;;;3.97;;
21326;SDS011;10822;51.532;6.770;2022-07-29T08:54:50;7.93;;;4.13;;
21326;SDS011;10822;51.532;6.770;2022-07-29T08:57:17;9.52;;;4.75;;
21326;SDS011;10822;51.532;6.770;2022-07-29T08:59:43;6.68;;;4.30;;
21326;SDS011;10822;51.532;6.770;2022-07-29T09:02:12;8.10;;;4.57;;
21326;SDS011;10822;51.532;6.770;2022-07-29T09:04:39;6.13;;;4.20;;
21326;SDS011;10822;51.532;6.770;2022-07-29T09:07:05;8.05;;;4.20;;
21326;SDS011;10822;51.532;6.770;2022-07-29T09:09:33;6.38;;;4.72;;
21326;SDS011;10822;51.532;6.770;2022-07-29T09:11:59;10.18;;;4.65;;
21326;SDS011;10822;51.532;6.770;2022-07-29T09:14:25;8.75;;;4.50;;
21326;SDS011;10822;51.532;6.770;2022-07-29T09:16:52;8.85;;;4.82;;
21326;SDS011;10822;51.532;6.770;2022-07-29T09:19:26;6.07;;;4.20;;
21326;SDS011;10822;51.532;6.770;2022-07-29T09:21:53;6.47;;;4.20;;
21326;SDS011;10822;51.532;6.770;2022-07-29T09:24:26;9.73;;;4.25;;
21326;SDS011;10822;51.532;6.770;2022-07-29T09:26:52;6.43;;;4.32;;
21326;SDS011;10822;51.532;6.770;2022-07-29T09:29:19;9.20;;;4.40;;
21326;SDS011;10822;51.532;6.770;2022-07-29T09:31:47;8.00;;;4.35;;
21326;SDS011;10822;51.532;6.770;2022-07-29T09:34:14;6.95;;;4.22;;
21326;SDS011;10822;51.532;6.770;2022-07-29T09:36:41;8.55;;;4.43;;
21326;SDS011;10822;51.532;6.770;2022-07-29T09:39:07;6.00;;;3.75;;
21326;SDS011;10822;51.532;6.770;2022-07-29T09:41:49;6.32;;;3.80;;
21326;SDS011;10822;51.532;6.770;2022-07-29T09:44:17;6.10;;;3.83;;
21326;SDS011;10822;51.532;6.770;2022-07-29T09:47:00;7.50;;;3.80;;
21326;SDS011;10822;51.532;6.770;2022-07-29T09:49:33;8.98;;;3.83;;
21326;SDS011;10822;51.532;6.770;2022-07-29T09:52:00;7.38;;;3.75;;
21326;SDS011;10822;51.532;6.770;2022-07-29T09:54:26;5.35;;;2.88;;
21326;SDS011;10822;51.532;6.770;2022-07-29T09:56:53;7.75;;;3.40;;
21326;SDS011;10822;51.532;6.770;2022-07-29T09:59:19;5.78;;;3.58;;
21326;SDS011;10822;51.532;6.770;2022-07-29T10:01:47;11.65;;;5.30;;
21326;SDS011;10822;51.532;6.770;2022-07-29T10:04:14;4.95;;;3.63;;
21326;SDS011;10822;51.532;6.770;2022-07-29T10:09:22;10.90;;;5.00;;
21326;SDS011;10822;51.532;6.770;2022-07-29T10:14:35;5.18;;;3.40;;
21326;SDS011;10822;51.532;6.770;2022-07-29T10:17:01;6.60;;;2.95;;
21326;SDS011;10822;51.532;6.770;2022-07-29T10:19:28;7.88;;;3.55;;
21326;SDS011;10822;51.532;6.770;2022-07-29T10:21:56;7.18;;;3.10;;
21326;SDS011;10822;51.532;6.770;2022-07-29T10:24:22;7.80;;;3.08;;
21326;SDS011;10822;51.532;6.770;2022-07-29T10:26:48;5.63;;;2.92;;
21326;SDS011;10822;51.532;6.770;2022-07-29T10:29:14;6.78;;;3.20;;
21326;SDS011;10822;51.532;6.770;2022-07-29T10:31:57;5.80;;;3.00;;
21326;SDS011;10822;51.532;6.770;2022-07-29T10:37:03;6.97;;;3.20;;
21326;SDS011;10822;51.532;6.770;2022-07-29T10:44:41;14.68;;;8.90;;
21326;SDS011;10822;51.532;6.770;2022-07-29T10:47:07;35.20;;;28.70;;
21326;SDS011;10822;51.532;6.770;2022-07-29T10:49:33;52.10;;;39.75;;
21326;SDS011;10822;51.532;6.770;2022-07-29T10:52:09;22.73;;;17.77;;
21326;SDS011;10822;51.532;6.770;2022-07-29T10:57:20;7.32;;;3.70;;
21326;SDS011;10822;51.532;6.770;2022-07-29T11:07:22;7.38;;;3.72;;
21326;SDS011;10822;51.532;6.770;2022-07-29T11:15:05;7.57;;;3.47;;
21326;SDS011;10822;51.532;6.770;2022-07-29T11:31:19;5.30;;;3.28;;
21326;SDS011;10822;51.532;6.770;2022-07-29T11:33:45;6.05;;;3.90;;
21326;SDS011;10822;51.532;6.770;2022-07-29T11:36:12;6.25;;;3.65;;
21326;SDS011;10822;51.532;6.770;2022-07-29T11:38:39;7.57;;;4.00;;
21326;SDS011;10822;51.532;6.770;2022-07-29T11:43:47;5.68;;;3.38;;
21326;SDS011;10822;51.532;6.770;2022-07-29T11:46:13;8.35;;;4.20;;
21326;SDS011;10822;51.532;6.770;2022-07-29T11:48:43;8.63;;;3.90;;
21326;SDS011;10822;51.532;6.770;2022-07-29T11:51:09;6.78;;;3.85;;
21326;SDS011;10822;51.532;6.770;2022-07-29T11:53:36;8.90;;;4.18;;
21326;SDS011;10822;51.532;6.770;2022-07-29T11:56:02;7.93;;;4.43;;
21326;SDS011;10822;51.532;6.770;2022-07-29T11:58:30;8.65;;;3.60;;
21326;SDS011;10822;51.532;6.770;2022-07-29T12:00:56;7.28;;;3.92;;
21326;SDS011;10822;51.532;6.770;2022-07-29T12:03:24;5.15;;;3.42;;
21326;SDS011;10822;51.532;6.770;2022-07-29T12:05:50;7.20;;;3.92;;
21326;SDS011;10822;51.532;6.770;2022-07-29T12:08:21;6.60;;;3.58;;
21326;SDS011;10822;51.532;6.770;2022-07-29T12:10:48;8.70;;;4.18;;
21326;SDS011;10822;51.532;6.770;2022-07-29T12:13:15;5.30;;;3.53;;
21326;SDS011;10822;51.532;6.770;2022-07-29T12:15:42;6.25;;;3.50;;
21326;SDS011;10822;51.532;6.770;2022-07-29T12:18:12;7.45;;;3.40;;
21326;SDS011;10822;51.532;6.770;2022-07-29T12:20:38;9.43;;;3.97;;
21326;SDS011;10822;51.532;6.770;2022-07-29T12:23:05;8.45;;;3.55;;
21326;SDS011;10822;51.532;6.770;2022-07-29T12:25:33;6.03;;;3.30;;
21326;SDS011;10822;51.532;6.770;2022-07-29T12:28:00;6.55;;;2.95;;
21326;SDS011;10822;51.532;6.770;2022-07-29T12:30:36;5.10;;;2.75;;
21326;SDS011;10822;51.532;6.770;2022-07-29T12:33:10;6.25;;;2.78;;
21326;SDS011;10822;51.532;6.770;2022-07-29T12:35:36;5.88;;;3.28;;
21326;SDS011;10822;51.532;6.770;2022-07-29T12:38:02;8.00;;;4.22;;
21326;SDS011;10822;51.532;6.770;2022-07-29T12:40:28;8.57;;;3.95;;
21326;SDS011;10822;51.532;6.770;2022-07-29T12:45:39;6.70;;;3.00;;
21326;SDS011;10822;51.532;6.770;2022-07-29T12:48:05;8.50;;;2.97;;
21326;SDS011;10822;51.532;6.770;2022-07-29T12:50:56;8.65;;;3.33;;
21326;SDS011;10822;51.532;6.770;2022-07-29T12:53:21;5.82;;;2.92;;
21326;SDS011;10822;51.532;6.770;2022-07-29T12:55:48;10.23;;;3.20;;
21326;SDS011;10822;51.532;6.770;2022-07-29T12:58:37;5.30;;;2.50;;
21326;SDS011;10822;51.532;6.770;2022-07-29T13:01:09;5.32;;;2.50;;
21326;SDS011;10822;51.532;6.770;2022-07-29T13:03:53;11.13;;;3.33;;
21326;SDS011;10822;51.532;6.770;2022-07-29T13:09:13;14.20;;;5.25;;
21326;SDS011;10822;51.532;6.770;2022-07-29T13:11:46;10.82;;;4.20;;
21326;SDS011;10822;51.532;6.770;2022-07-29T13:14:14;6.28;;;3.00;;
21326;SDS011;10822;51.532;6.770;2022-07-29T13:16:59;7.65;;;3.00;;
21326;SDS011;10822;51.532;6.770;2022-07-29T13:19:35;3.92;;;2.80;;
21326;SDS011;10822;51.532;6.770;2022-07-29T13:22:02;4.22;;;2.40;;
21326;SDS011;10822;51.532;6.770;2022-07-29T13:24:28;5.85;;;2.60;;
21326;SDS011;10822;51.532;6.770;2022-07-29T13:26:54;6.65;;;2.67;;
21326;SDS011;10822;51.532;6.770;2022-07-29T13:29:20;9.25;;;2.97;;
21326;SDS011;10822;51.532;6.770;2022-07-29T13:31:46;5.70;;;2.13;;
21326;SDS011;10822;51.532;6.770;2022-07-29T13:34:11;5.78;;;2.67;;
21326;SDS011;10822;51.532;6.770;2022-07-29T13:36:38;7.05;;;2.40;;
21326;SDS011;10822;51.532;6.770;2022-07-29T13:39:04;7.32;;;2.38;;
21326;SDS011;10822;51.532;6.770;2022-07-29T13:41:30;6.72;;;2.55;;
21326;SDS011;10822;51.532;6.770;2022-07-29T13:43:56;3.95;;;2.47;;
21326;SDS011;10822;51.532;6.770;2022-07-29T13:46:22;4.85;;;2.50;;
21326;SDS011;10822;51.532;6.770;2022-07-29T13:48:48;6.55;;;2.80;;
21326;SDS011;10822;51.532;6.770;2022-07-29T13:51:14;5.43;;;3.00;;
21326;SDS011;10822;51.532;6.770;2022-07-29T13:53:39;4.47;;;2.30;;
21326;SDS011;10822;51.532;6.770;2022-07-29T13:56:05;3.65;;;1.95;;
21326;SDS011;10822;51.532;6.770;2022-07-29T13:58:32;5.03;;;2.50;;
21326;SDS011;10822;51.532;6.770;2022-07-29T14:00:58;5.95;;;2.30;;
21326;SDS011;10822;51.532;6.770;2022-07-29T14:03:24;4.85;;;2.03;;
21326;SDS011;10822;51.532;6.770;2022-07-29T14:05:51;7.85;;;2.38;;
21326;SDS011;10822;51.532;6.770;2022-07-29T14:08:17;7.55;;;2.22;;
21326;SDS011;10822;51.532;6.770;2022-07-29T14:10:43;6.18;;;2.40;;
21326;SDS011;10822;51.532;6.770;2022-07-29T14:13:09;5.68;;;2.00;;
21326;SDS011;10822;51.532;6.770;2022-07-29T14:15:35;5.32;;;2.20;;
21326;SDS011;10822;51.532;6.770;2022-07-29T14:18:01;8.13;;;3.47;;
21326;SDS011;10822;51.532;6.770;2022-07-29T14:20:27;8.95;;;3.08;;
21326;SDS011;10822;51.532;6.770;2022-07-29T14:22:54;5.72;;;2.38;;
21326;SDS011;10822;51.532;6.770;2022-07-29T14:25:21;4.60;;;2.40;;
21326;SDS011;10822;51.532;6.770;2022-07-29T14:27:47;5.05;;;2.20;;
21326;SDS011;10822;51.532;6.770;2022-07-29T14:30:13;5.50;;;2.38;;
21326;SDS011;10822;51.532;6.770;2022-07-29T14:32:39;6.80;;;2.30;;
21326;SDS011;10822;51.532;6.770;2022-07-29T14:35:06;5.00;;;2.20;;
21326;SDS011;10822;51.532;6.770;2022-07-29T14:37:33;4.78;;;2.08;;
21326;SDS011;10822;51.532;6.770;2022-07-29T14:40:00;4.13;;;2.30;;
21326;SDS011;10822;51.532;6.770;2022-07-29T14:42:28;4.82;;;2.80;;
21326;SDS011;10822;51.532;6.770;2022-07-29T14:44:54;4.03;;;2.00;;
21326;SDS011;10822;51.532;6.770;2022-07-29T14:47:20;8.38;;;3.03;;
21326;SDS011;10822;51.532;6.770;2022-07-29T14:49:46;5.72;;;2.60;;
21326;SDS011;10822;51.532;6.770;2022-07-29T14:52:12;5.75;;;2.22;;
21326;SDS011;10822;51.532;6.770;2022-07-29T14:54:38;6.82;;;2.53;;
21326;SDS011;10822;51.532;6.770;2022-07-29T14:57:04;7.65;;;2.60;;
21326;SDS011;10822;51.532;6.770;2022-07-29T14:59:30;3.83;;;2.28;;
21326;SDS011;10822;51.532;6.770;2022-07-29T15:01:56;3.95;;;2.17;;
21326;SDS011;10822;51.532;6.770;2022-07-29T15:04:22;5.55;;;2.47;;
21326;SDS011;10822;51.532;6.770;2022-07-29T15:06:48;5.60;;;2.42;;
21326;SDS011;10822;51.532;6.770;2022-07-29T15:09:15;8.00;;;3.60;;
21326;SDS011;10822;51.532;6.770;2022-07-29T15:11:41;6.63;;;2.50;;
21326;SDS011;10822;51.532;6.770;2022-07-29T15:14:07;4.57;;;1.80;;
21326;SDS011;10822;51.532;6.770;2022-07-29T15:16:35;4.13;;;1.92;;
21326;SDS011;10822;51.532;6.770;2022-07-29T15:19:00;3.67;;;2.00;;
21326;SDS011;10822;51.532;6.770;2022-07-29T15:21:26;6.10;;;1.83;;
21326;SDS011;10822;51.532;6.770;2022-07-29T15:23:52;8.02;;;2.00;;
21326;SDS011;10822;51.532;6.770;2022-07-29T15:26:18;4.97;;;1.88;;
21326;SDS011;10822;51.532;6.770;2022-07-29T15:28:45;4.78;;;2.10;;
21326;SDS011;10822;51.532;6.770;2022-07-29T15:31:11;5.50;;;2.20;;
21326;SDS011;10822;51.532;6.770;2022-07-29T15:33:37;5.22;;;2.10;;
21326;SDS011;10822;51.532;6.770;2022-07-29T15:36:03;5.55;;;2.13;;
21326;SDS011;10822;51.532;6.770;2022-07-29T15:38:29;5.55;;;1.60;;
21326;SDS011;10822;51.532;6.770;2022-07-29T15:40:55;4.07;;;2.20;;
21326;SDS011;10822;51.532;6.770;2022-07-29T15:43:22;5.07;;;2.28;;
21326;SDS011;10822;51.532;6.770;2022-07-29T15:45:48;5.78;;;2.10;;
21326;SDS011;10822;51.532;6.770;2022-07-29T15:48:46;4.32;;;2.03;;
21326;SDS011;10822;51.532;6.770;2022-07-29T15:51:12;7.68;;;2.40;;
21326;SDS011;10822;51.532;6.770;2022-07-29T15:53:38;7.25;;;2.17;;
21326;SDS011;10822;51.532;6.770;2022-07-29T15:56:04;4.63;;;2.42;;
21326;SDS011;10822;51.532;6.770;2022-07-29T15:58:30;5.32;;;2.53;;